createdAt,value
2022-12-11T00:00:05.022Z,11.30
2022-12-11T00:02:31.412Z,10.13
2022-12-11T00:04:57.896Z,10.05
2022-12-11T00:07:24.295Z,10.27
2022-12-11T00:09:50.674Z,11.10
2022-12-11T00:12:17.031Z,12.02
2022-12-11T00:14:43.381Z,12.05
2022-12-11T00:17:10.089Z,12.52
2022-12-11T00:19:36.571Z,10.77
2022-12-11T00:22:03.239Z,10.00
2022-12-11T00:24:29.615Z,9.60
2022-12-11T00:26:56.023Z,10.15
2022-12-11T00:29:22.381Z,9.68
2022-12-11T00:31:48.777Z,9.70
2022-12-11T00:34:15.195Z,9.77
2022-12-11T00:36:41.611Z,11.75
2022-12-11T00:39:08.064Z,11.38
2022-12-11T00:41:34.619Z,11.15
2022-12-11T00:44:01.037Z,10.63
2022-12-11T00:46:27.550Z,11.90
2022-12-11T00:48:53.971Z,11.15
2022-12-11T00:51:20.432Z,10.20
2022-12-11T00:53:47.025Z,10.55
2022-12-11T00:56:19.547Z,10.57
2022-12-11T00:58:47.235Z,10.35
2022-12-11T01:01:16.652Z,9.27
2022-12-11T01:03:43.459Z,10.00
2022-12-11T01:06:15.323Z,10.18
2022-12-11T01:08:42.499Z,9.73
2022-12-11T01:11:11.369Z,10.02
2022-12-11T01:13:38.972Z,10.20
2022-12-11T01:16:11.294Z,9.30
2022-12-11T01:18:38.594Z,9.45
2022-12-11T01:21:09.800Z,9.50
2022-12-11T01:23:36.715Z,8.93
2022-12-11T01:26:11.379Z,9.48
2022-12-11T01:28:38.353Z,8.63
2022-12-11T01:31:10.044Z,9.77
2022-12-11T01:33:37.009Z,9.10
2022-12-11T01:36:22.889Z,9.55
2022-12-11T01:38:49.788Z,9.70
2022-12-11T01:41:18.104Z,8.88
2022-12-11T01:44:02.932Z,9.38
2022-12-11T01:46:30.974Z,9.10
2022-12-11T01:48:58.987Z,9.73
2022-12-11T01:51:26.915Z,10.00
2022-12-11T01:53:58.808Z,8.70
2022-12-11T01:56:25.420Z,9.65
2022-12-11T01:58:55.115Z,8.77
2022-12-11T02:01:36.715Z,9.55
2022-12-11T02:04:04.282Z,9.55
2022-12-11T02:06:33.996Z,9.70
2022-12-11T02:09:01.555Z,9.38
2022-12-11T02:11:57.957Z,9.27
2022-12-11T02:14:43.522Z,8.98
2022-12-11T02:17:19.537Z,10.45
2022-12-11T02:20:01.535Z,9.40
2022-12-11T02:22:47.801Z,8.93
2022-12-11T02:25:41.006Z,9.30
2022-12-11T02:28:34.867Z,9.18
2022-12-11T02:31:10.584Z,8.98
2022-12-11T02:33:43.694Z,9.20
2022-12-11T02:36:10.658Z,9.73
2022-12-11T02:38:41.692Z,9.40
2022-12-11T02:41:11.445Z,9.38
2022-12-11T02:43:39.484Z,9.32
2022-12-11T02:46:08.032Z,9.38
2022-12-11T02:48:36.770Z,9.75
2022-12-11T02:51:06.197Z,9.90
2022-12-11T02:53:35.500Z,10.60
2022-12-11T02:56:26.776Z,10.40
2022-12-11T02:59:02.939Z,9.98
2022-12-11T03:01:29.351Z,9.25
2022-12-11T03:03:56.486Z,10.43
2022-12-11T03:06:32.296Z,10.38
2022-12-11T03:08:58.791Z,11.13
2022-12-11T03:11:25.205Z,10.75
2022-12-11T03:13:53.722Z,9.88
2022-12-11T03:16:38.872Z,9.87
2022-12-11T03:19:26.638Z,9.73
2022-12-11T03:22:22.612Z,8.75
2022-12-11T03:24:55.004Z,8.95
2022-12-11T03:27:33.058Z,8.20
2022-12-11T03:30:05.682Z,9.20
2022-12-11T03:32:44.502Z,9.27
2022-12-11T03:35:21.492Z,9.27
2022-12-11T03:37:49.594Z,9.10
2022-12-11T03:40:19.224Z,9.38
2022-12-11T03:42:49.627Z,10.13
2022-12-11T03:45:18.661Z,9.23
2022-12-11T03:47:47.300Z,9.48
2022-12-11T03:50:18.108Z,9.80
2022-12-11T03:52:46.535Z,9.25
2022-12-11T03:55:15.104Z,9.43
2022-12-11T03:57:41.616Z,9.38
2022-12-11T04:00:12.762Z,9.50
2022-12-11T04:02:39.845Z,9.23
2022-12-11T04:05:06.798Z,10.02
2022-12-11T04:07:33.208Z,9.70
2022-12-11T04:10:00.358Z,9.27
2022-12-11T04:12:26.829Z,8.98
2022-12-11T04:15:02.343Z,9.18
2022-12-11T04:17:52.908Z,9.45
2022-12-11T04:20:38.620Z,9.50
2022-12-11T04:23:33.140Z,9.27
2022-12-11T04:26:11.604Z,8.95
2022-12-11T04:28:39.363Z,9.02
2022-12-11T04:31:06.222Z,9.10
2022-12-11T04:33:32.654Z,8.80
2022-12-11T04:36:00.726Z,10.02
2022-12-11T04:38:27.721Z,9.88
2022-12-11T04:41:01.716Z,9.90
2022-12-11T04:43:28.546Z,10.05
2022-12-11T04:46:05.991Z,9.33
2022-12-11T04:48:32.734Z,9.60
2022-12-11T04:50:59.266Z,9.05
2022-12-11T04:53:26.631Z,9.13
2022-12-11T04:55:53.104Z,10.27
2022-12-11T04:58:19.450Z,9.57
2022-12-11T05:00:46.414Z,9.77
2022-12-11T05:03:12.996Z,9.35
2022-12-11T05:05:39.637Z,9.82
2022-12-11T05:08:06.177Z,10.13
2022-12-11T05:10:32.591Z,9.53
2022-12-11T05:12:58.962Z,9.05
2022-12-11T05:15:25.330Z,8.73
2022-12-11T05:17:51.686Z,9.50
2022-12-11T05:20:18.158Z,10.15
2022-12-11T05:22:44.510Z,11.03
2022-12-11T05:25:11.210Z,10.73
2022-12-11T05:27:37.841Z,10.45
2022-12-11T05:30:04.732Z,10.80
2022-12-11T05:32:31.128Z,10.57
2022-12-11T05:34:57.772Z,9.80
2022-12-11T05:37:24.231Z,9.40
2022-12-11T05:39:50.588Z,9.30
2022-12-11T05:42:16.921Z,9.65
2022-12-11T05:44:43.319Z,9.68
2022-12-11T05:47:09.667Z,12.47
2022-12-11T05:49:36.155Z,12.57
2022-12-11T05:52:02.516Z,11.65
2022-12-11T05:54:28.871Z,11.50
2022-12-11T05:56:55.273Z,11.10
2022-12-11T05:59:21.620Z,10.03
2022-12-11T06:01:48.093Z,9.18
2022-12-11T06:04:14.624Z,9.52
2022-12-11T06:06:41.317Z,9.70
2022-12-11T06:09:07.940Z,10.25
2022-12-11T06:11:34.871Z,9.57
2022-12-11T06:14:02.972Z,9.50
2022-12-11T06:16:29.437Z,9.75
2022-12-11T06:18:58.468Z,10.00
2022-12-11T06:21:29.875Z,10.15
2022-12-11T06:23:58.595Z,11.60
2022-12-11T06:26:25.927Z,11.40
2022-12-11T06:28:52.682Z,9.90
2022-12-11T06:31:20.183Z,9.60
2022-12-11T06:33:47.561Z,10.43
2022-12-11T06:36:17.090Z,11.00
2022-12-11T06:38:44.245Z,9.88
2022-12-11T06:41:11.234Z,9.75
2022-12-11T06:43:40.086Z,9.63
2022-12-11T06:46:09.218Z,8.73
2022-12-11T06:48:35.918Z,7.53
2022-12-11T06:51:10.181Z,7.90
2022-12-11T06:53:36.903Z,7.95
2022-12-11T06:56:09.348Z,8.40
2022-12-11T06:58:37.107Z,7.90
2022-12-11T07:01:04.885Z,7.57
2022-12-11T07:03:31.438Z,7.20
2022-12-11T07:06:02.367Z,8.82
2022-12-11T07:08:29.645Z,8.93
2022-12-11T07:11:02.663Z,7.60
2022-12-11T07:13:29.007Z,7.43
2022-12-11T07:15:55.359Z,7.50
2022-12-11T07:18:21.696Z,8.70
2022-12-11T07:20:48.052Z,8.05
2022-12-11T07:23:14.383Z,8.02
2022-12-11T07:25:40.739Z,8.60
2022-12-11T07:28:09.113Z,8.07
2022-12-11T07:30:38.289Z,8.20
2022-12-11T07:33:05.721Z,7.90
2022-12-11T07:35:34.862Z,7.97
2022-12-11T07:38:01.344Z,7.80
2022-12-11T07:40:27.764Z,7.65
2022-12-11T07:42:54.192Z,8.02
2022-12-11T07:45:20.593Z,8.68
2022-12-11T07:47:46.953Z,8.98
2022-12-11T07:50:13.344Z,9.10
2022-12-11T07:52:39.687Z,8.55
2022-12-11T07:55:06.161Z,8.32
2022-12-11T07:57:32.512Z,8.55
2022-12-11T07:59:58.854Z,7.57
2022-12-11T08:02:25.282Z,8.77
2022-12-11T08:04:51.746Z,8.88
2022-12-11T08:07:18.080Z,9.25
2022-12-11T08:09:44.453Z,8.60
2022-12-11T08:12:11.918Z,7.68
2022-12-11T08:14:38.259Z,8.47
2022-12-11T08:17:04.919Z,8.45
2022-12-11T08:19:31.327Z,8.32
2022-12-11T08:21:57.733Z,8.10
2022-12-11T08:24:24.080Z,8.68
2022-12-11T08:26:50.456Z,9.07
2022-12-11T08:29:16.993Z,9.65
2022-12-11T08:31:43.415Z,9.70
2022-12-11T08:34:13.696Z,9.60
2022-12-11T08:36:40.189Z,9.43
2022-12-11T08:39:06.669Z,9.00
2022-12-11T08:41:33.035Z,9.30
2022-12-11T08:44:00.382Z,9.52
2022-12-11T08:46:30.761Z,8.55
2022-12-11T08:48:58.656Z,8.75
2022-12-11T08:51:27.109Z,8.47
2022-12-11T08:53:58.230Z,8.55
2022-12-11T08:56:25.233Z,8.52
2022-12-11T08:58:52.483Z,8.07
2022-12-11T09:01:21.776Z,12.18
2022-12-11T09:03:49.056Z,9.70
2022-12-11T09:06:18.142Z,8.88
2022-12-11T09:08:51.895Z,9.10
2022-12-11T09:11:21.939Z,8.90
2022-12-11T09:13:48.816Z,9.35
2022-12-11T09:16:19.700Z,8.43
2022-12-11T09:18:47.873Z,9.15
2022-12-11T09:21:16.939Z,10.02
2022-12-11T09:23:43.656Z,8.73
2022-12-11T09:26:16.121Z,9.35
2022-12-11T09:28:46.737Z,9.73
2022-12-11T09:31:23.512Z,9.00
2022-12-11T09:33:52.016Z,9.15
2022-12-11T09:36:18.940Z,9.55
2022-12-11T09:38:46.371Z,8.63
2022-12-11T09:41:21.906Z,8.00
2022-12-11T09:44:13.111Z,11.52
2022-12-11T09:46:40.774Z,9.02
2022-12-11T09:49:20.859Z,8.85
2022-12-11T09:52:09.965Z,10.95
2022-12-11T09:54:36.746Z,10.57
2022-12-11T09:57:14.633Z,10.93
2022-12-11T10:00:02.723Z,9.70
2022-12-11T10:02:59.101Z,8.18
2022-12-11T10:05:45.394Z,7.28
2022-12-11T10:08:23.681Z,7.20
2022-12-11T10:11:27.978Z,7.47
2022-12-11T10:14:25.084Z,6.65
2022-12-11T10:17:02.517Z,6.80
2022-12-11T10:19:31.533Z,7.72
2022-12-11T10:22:00.039Z,6.43
2022-12-11T10:27:39.249Z,8.00
2022-12-11T10:30:18.655Z,8.48
2022-12-11T10:32:44.988Z,9.02
2022-12-11T10:35:19.966Z,7.50
2022-12-11T10:37:46.369Z,6.90
2022-12-11T10:40:13.648Z,8.13
2022-12-11T10:42:44.158Z,6.90
2022-12-11T10:45:16.225Z,7.63
2022-12-11T10:47:42.579Z,7.07
2022-12-11T10:50:24.922Z,6.65
2022-12-11T10:52:52.827Z,7.65
2022-12-11T10:55:24.361Z,6.93
2022-12-11T10:58:05.701Z,6.95
2022-12-11T11:00:37.455Z,7.60
2022-12-11T11:03:07.782Z,7.35
2022-12-11T11:05:36.395Z,7.15
2022-12-11T11:08:16.004Z,6.72
2022-12-11T11:10:55.791Z,6.43
2022-12-11T11:13:27.794Z,6.27
2022-12-11T11:16:13.020Z,6.32
2022-12-11T11:18:41.371Z,6.28
2022-12-11T11:21:17.609Z,6.32
2022-12-11T11:23:47.281Z,6.47
2022-12-11T11:26:15.800Z,6.90
2022-12-11T11:28:54.656Z,6.43
2022-12-11T11:31:32.930Z,6.53
2022-12-11T11:34:06.595Z,5.95
2022-12-11T11:36:35.896Z,6.97
2022-12-11T11:39:20.405Z,7.63
2022-12-11T11:41:54.035Z,7.40
2022-12-11T11:44:31.358Z,6.72
2022-12-11T11:47:05.895Z,7.40
2022-12-11T11:49:52.938Z,7.22
2022-12-11T11:52:38.884Z,6.77
2022-12-11T11:55:22.045Z,6.60
2022-12-11T11:58:07.427Z,6.20
2022-12-11T12:00:34.255Z,6.38
2022-12-11T12:03:06.030Z,6.95
2022-12-11T12:05:44.764Z,9.50
2022-12-11T12:08:21.233Z,11.35
2022-12-11T12:10:53.548Z,8.32
2022-12-11T12:13:50.171Z,6.53
2022-12-11T12:16:54.823Z,7.03
2022-12-11T12:19:48.606Z,7.43
2022-12-11T12:22:39.162Z,7.70
2022-12-11T12:25:14.616Z,7.20
2022-12-11T12:27:52.810Z,8.02
2022-12-11T12:30:23.409Z,8.18
2022-12-11T12:33:19.724Z,7.80
2022-12-11T12:36:17.891Z,9.25
2022-12-11T12:39:13.385Z,10.20
2022-12-11T12:42:22.742Z,11.45
2022-12-11T12:45:03.637Z,9.90
2022-12-11T12:47:34.434Z,9.30
2022-12-11T12:50:03.098Z,9.15
2022-12-11T12:52:33.572Z,10.60
2022-12-11T12:55:14.662Z,10.43
2022-12-11T12:57:49.493Z,12.13
2022-12-11T13:00:34.310Z,12.27
2022-12-11T13:03:20.725Z,12.35
2022-12-11T13:06:13.387Z,13.13
2022-12-11T13:08:44.099Z,15.20
2022-12-11T13:11:12.990Z,14.82
2022-12-11T13:14:04.141Z,12.57
2022-12-11T13:16:42.251Z,13.93
2022-12-11T13:19:23.961Z,14.48
2022-12-11T13:22:14.755Z,13.35
2022-12-11T13:24:48.677Z,17.70
2022-12-11T13:27:35.971Z,13.27
2022-12-11T13:30:23.181Z,13.68
2022-12-11T13:32:59.443Z,13.95
2022-12-11T13:35:26.519Z,13.32
2022-12-11T13:37:54.101Z,13.07
2022-12-11T13:40:32.980Z,14.47
2022-12-11T13:43:03.775Z,17.83
2022-12-11T13:45:46.431Z,14.93
2022-12-11T13:48:34.599Z,13.30
2022-12-11T13:51:01.607Z,15.05
2022-12-11T13:53:28.462Z,14.83
2022-12-11T13:56:01.999Z,13.50
2022-12-11T13:58:29.526Z,13.90
2022-12-11T14:01:20.493Z,14.52
2022-12-11T14:03:59.234Z,13.70
2022-12-11T14:06:27.968Z,14.60
2022-12-11T14:08:57.696Z,13.80
2022-12-11T14:11:29.324Z,14.88
2022-12-11T14:13:59.515Z,15.88
2022-12-11T14:16:27.553Z,16.60
2022-12-11T14:18:58.293Z,16.10
2022-12-11T14:21:25.713Z,15.55
2022-12-11T14:24:00.304Z,15.48
2022-12-11T14:26:29.775Z,13.90
2022-12-11T14:28:56.377Z,15.20
2022-12-11T14:31:34.388Z,16.00
2022-12-11T14:34:14.297Z,16.00
2022-12-11T14:36:42.014Z,14.98
2022-12-11T14:39:13.169Z,16.08
2022-12-11T14:41:45.756Z,14.68
2022-12-11T14:44:15.859Z,13.77
2022-12-11T14:46:51.463Z,13.70
2022-12-11T14:49:33.386Z,15.20
2022-12-11T14:52:01.014Z,14.30
2022-12-11T14:54:36.385Z,14.38
2022-12-11T14:57:06.555Z,15.77
2022-12-11T14:59:40.977Z,15.10
2022-12-11T15:02:26.968Z,15.65
2022-12-11T15:05:22.035Z,15.48
2022-12-11T15:07:59.599Z,16.05
2022-12-11T15:10:35.468Z,15.73
2022-12-11T15:13:03.354Z,17.98
2022-12-11T15:15:33.111Z,15.68
2022-12-11T15:18:22.397Z,14.80
2022-12-11T15:20:58.650Z,15.13
2022-12-11T15:23:25.654Z,18.73
2022-12-11T15:25:54.834Z,17.35
2022-12-11T15:28:37.163Z,23.27
2022-12-11T15:31:07.051Z,17.42
2022-12-11T15:33:34.864Z,16.17
2022-12-11T15:36:07.100Z,15.37
2022-12-11T15:38:35.050Z,14.68
2022-12-11T15:41:02.778Z,14.82
2022-12-11T15:43:34.508Z,14.45
2022-12-11T15:46:02.667Z,16.38
2022-12-11T15:48:29.037Z,16.83
2022-12-11T15:50:55.403Z,17.17
2022-12-11T15:53:21.728Z,16.40
2022-12-11T15:55:48.544Z,16.17
2022-12-11T15:58:18.980Z,14.50
2022-12-11T16:00:45.721Z,14.87
2022-12-11T16:03:14.546Z,15.75
2022-12-11T16:05:42.226Z,15.45
2022-12-11T16:08:14.897Z,15.75
2022-12-11T16:10:43.337Z,14.20
2022-12-11T16:13:11.132Z,13.83
2022-12-11T16:15:43.522Z,15.65
2022-12-11T16:18:13.288Z,15.73
2022-12-11T16:20:41.073Z,14.55
2022-12-11T16:23:08.102Z,14.63
2022-12-11T16:25:37.565Z,17.67
2022-12-11T16:28:04.171Z,15.60
2022-12-11T16:30:30.925Z,14.48
2022-12-11T16:32:57.579Z,14.98
2022-12-11T16:35:23.932Z,14.27
2022-12-11T16:37:51.619Z,16.37
2022-12-11T16:40:18.537Z,13.93
2022-12-11T16:42:45.659Z,15.32
2022-12-11T16:45:23.612Z,15.25
2022-12-11T16:47:49.985Z,14.57
2022-12-11T16:50:17.366Z,14.03
2022-12-11T16:52:44.499Z,13.95
2022-12-11T16:55:13.253Z,14.10
2022-12-11T16:57:40.457Z,14.57
2022-12-11T17:00:08.993Z,14.68
2022-12-11T17:02:36.304Z,14.20
2022-12-11T17:05:02.810Z,14.32
2022-12-11T17:07:31.611Z,14.95
2022-12-11T17:09:58.052Z,13.88
2022-12-11T17:12:27.668Z,16.33
2022-12-11T17:14:54.908Z,16.97
2022-12-11T17:17:21.388Z,17.65
2022-12-11T17:19:47.756Z,17.00
2022-12-11T17:22:14.193Z,16.63
2022-12-11T17:24:40.597Z,17.88
2022-12-11T17:27:07.021Z,17.20
2022-12-11T17:29:33.453Z,16.75
2022-12-11T17:31:59.858Z,14.00
2022-12-11T17:34:26.205Z,14.65
2022-12-11T17:36:52.605Z,13.95
2022-12-11T17:39:18.995Z,13.90
2022-12-11T17:41:45.411Z,14.20
2022-12-11T17:44:11.787Z,14.38
2022-12-11T17:46:38.318Z,13.82
2022-12-11T17:49:05.397Z,14.23
2022-12-11T17:51:31.789Z,13.90
2022-12-11T17:53:58.393Z,14.07
2022-12-11T17:56:25.434Z,12.90
2022-12-11T17:58:51.958Z,13.43
2022-12-11T18:01:19.316Z,12.50
2022-12-11T18:03:46.850Z,12.17
2022-12-11T18:06:15.123Z,11.75
2022-12-11T18:08:42.615Z,12.40
2022-12-11T18:11:21.674Z,11.30
2022-12-11T18:13:49.707Z,13.32
2022-12-11T18:16:19.356Z,12.73
2022-12-11T18:18:47.580Z,13.55
2022-12-11T18:21:16.750Z,14.52
2022-12-11T18:23:44.104Z,13.32
2022-12-11T18:26:11.469Z,13.60
2022-12-11T18:28:37.860Z,14.17
2022-12-11T18:31:04.336Z,13.68
2022-12-11T18:33:31.118Z,14.30
2022-12-11T18:35:57.643Z,13.00
2022-12-11T18:38:24.066Z,13.10
2022-12-11T18:40:50.407Z,12.60
2022-12-11T18:43:16.765Z,14.05
2022-12-11T18:45:45.070Z,13.13
2022-12-11T18:48:12.757Z,12.63
2022-12-11T18:50:47.634Z,12.38
2022-12-11T18:53:14.388Z,13.30
2022-12-11T18:55:45.030Z,11.93
2022-12-11T18:58:12.970Z,12.10
2022-12-11T19:00:40.960Z,11.30
2022-12-11T19:03:08.773Z,14.70
2022-12-11T19:05:36.064Z,12.03
2022-12-11T19:08:03.560Z,17.27
2022-12-11T19:10:29.960Z,14.13
2022-12-11T19:12:56.316Z,13.50
2022-12-11T19:15:24.137Z,13.35
2022-12-11T19:17:50.749Z,18.23
2022-12-11T19:20:48.589Z,13.45
2022-12-11T19:23:04.065Z,12.35
2022-12-11T19:25:30.455Z,11.90
2022-12-11T19:27:56.989Z,12.10
2022-12-11T19:30:23.898Z,12.70
2022-12-11T19:32:50.318Z,12.15
2022-12-11T19:35:18.027Z,13.00
2022-12-11T19:37:44.814Z,12.50
2022-12-11T19:40:11.404Z,11.48
2022-12-11T19:42:37.804Z,11.53
2022-12-11T19:45:04.572Z,12.40
2022-12-11T19:47:30.907Z,12.20
2022-12-11T19:49:57.283Z,12.82
2022-12-11T19:52:23.679Z,10.43
2022-12-11T19:54:50.079Z,11.83
2022-12-11T19:57:16.494Z,12.75
2022-12-11T19:59:42.840Z,13.65
2022-12-11T20:02:11.574Z,13.93
2022-12-11T20:04:38.076Z,13.15
2022-12-11T20:07:04.488Z,12.80
2022-12-11T20:09:30.916Z,14.55
2022-12-11T20:11:57.271Z,13.00
2022-12-11T20:14:25.837Z,14.00
2022-12-11T20:17:10.861Z,14.70
2022-12-11T20:19:39.181Z,12.03
2022-12-11T20:22:05.655Z,12.25
2022-12-11T20:24:32.123Z,11.85
2022-12-11T20:26:58.455Z,11.68
2022-12-11T20:29:24.828Z,11.20
2022-12-11T20:31:51.502Z,11.03
2022-12-11T20:34:18.112Z,10.95
2022-12-11T20:36:44.537Z,11.07
2022-12-11T20:39:10.947Z,12.35
2022-12-11T20:41:37.387Z,12.80
2022-12-11T20:44:03.791Z,11.10
2022-12-11T20:46:30.159Z,14.70
2022-12-11T20:48:58.710Z,12.43
2022-12-11T20:51:26.586Z,11.02
2022-12-11T20:54:01.099Z,11.07
2022-12-11T20:56:29.983Z,11.97
2022-12-11T20:58:57.972Z,12.30
2022-12-11T21:01:26.456Z,12.43
2022-12-11T21:03:53.519Z,11.88
2022-12-11T21:06:21.546Z,12.43
2022-12-11T21:08:47.994Z,12.73
2022-12-11T21:11:14.455Z,12.02
2022-12-11T21:13:40.940Z,14.13
2022-12-11T21:16:08.356Z,12.50
2022-12-11T21:18:34.896Z,11.30
2022-12-11T21:21:01.283Z,11.57
2022-12-11T21:23:28.036Z,12.68
2022-12-11T21:25:54.560Z,13.45
2022-12-11T21:28:21.721Z,14.27
2022-12-11T21:30:48.154Z,12.88
2022-12-11T21:33:14.577Z,12.67
2022-12-11T21:35:40.936Z,12.75
2022-12-11T21:38:07.560Z,13.00
2022-12-11T21:40:34.050Z,12.90
2022-12-11T21:43:00.394Z,11.27
2022-12-11T21:45:59.157Z,11.90
2022-12-11T21:48:13.759Z,13.05
2022-12-11T21:50:40.879Z,13.57
2022-12-11T21:53:07.314Z,13.30
2022-12-11T21:55:33.756Z,14.13
2022-12-11T21:58:00.116Z,13.13
2022-12-11T22:00:28.129Z,12.55
2022-12-11T22:02:54.583Z,12.20
2022-12-11T22:05:21.052Z,12.07
2022-12-11T22:07:47.476Z,12.43
2022-12-11T22:10:13.999Z,13.23
2022-12-11T22:12:40.447Z,12.70
2022-12-11T22:15:07.715Z,11.38
2022-12-11T22:17:34.139Z,11.68
2022-12-11T22:20:00.496Z,11.93
2022-12-11T22:22:26.858Z,13.10
2022-12-11T22:24:53.207Z,12.57
2022-12-11T22:27:23.609Z,13.63
2022-12-11T22:29:50.444Z,11.07
2022-12-11T22:32:16.839Z,12.27
2022-12-11T22:34:43.214Z,11.53
2022-12-11T22:37:09.584Z,12.05
2022-12-11T22:39:35.921Z,11.90
2022-12-11T22:42:02.269Z,11.70
2022-12-11T22:44:28.636Z,11.68
2022-12-11T22:46:54.985Z,12.40
2022-12-11T22:49:21.377Z,12.40
2022-12-11T22:51:48.086Z,10.93
2022-12-11T22:54:14.505Z,11.60
2022-12-11T22:56:40.957Z,11.45
2022-12-11T22:59:07.527Z,11.67
2022-12-11T23:01:34.167Z,11.93
2022-12-11T23:04:00.639Z,11.32
2022-12-11T23:06:27.144Z,12.15
2022-12-11T23:08:56.785Z,12.77
2022-12-11T23:11:36.305Z,11.57
2022-12-11T23:14:04.757Z,12.05
2022-12-11T23:16:31.351Z,12.05
2022-12-11T23:18:58.375Z,12.63
2022-12-11T23:21:26.601Z,11.18
2022-12-11T23:23:54.054Z,10.37
2022-12-11T23:26:20.862Z,11.15
2022-12-11T23:28:47.768Z,11.23
2022-12-11T23:31:14.478Z,11.02
2022-12-11T23:33:40.974Z,11.43
2022-12-11T23:36:08.880Z,11.23
2022-12-11T23:38:35.519Z,11.60
2022-12-11T23:41:03.022Z,11.30
2022-12-11T23:43:29.460Z,11.27
2022-12-11T23:45:55.966Z,10.70
2022-12-11T23:48:22.465Z,10.93
2022-12-11T23:50:48.835Z,10.95
2022-12-11T23:53:15.520Z,9.43
2022-12-11T23:55:44.687Z,10.25
2022-12-11T23:58:11.765Z,9.38
